createdAt,value
2023-02-06T00:01:31.993Z,102740.69
2023-02-06T00:04:00.517Z,102735.38
2023-02-06T00:06:28.923Z,102734.44
2023-02-06T00:08:57.335Z,102736.88
2023-02-06T00:11:25.791Z,102735.03
2023-02-06T00:13:55.542Z,102728.06
2023-02-06T00:16:26.252Z,102725.31
2023-02-06T00:18:55.757Z,102729.41
2023-02-06T00:21:25.943Z,102722.25
2023-02-06T00:23:56.733Z,102725.44
2023-02-06T00:26:26.173Z,102721.66
2023-02-06T00:28:55.904Z,102723.16
2023-02-06T00:31:25.994Z,102709.78
2023-02-06T00:33:54.441Z,102710.38
2023-02-06T00:36:22.816Z,102717.06
2023-02-06T00:38:53.011Z,102714.94
2023-02-06T00:41:21.676Z,102702.47
2023-02-06T00:43:52.760Z,102702.16
2023-02-06T00:46:22.692Z,102701.84
2023-02-06T00:48:51.061Z,102705.66
2023-02-06T00:51:19.360Z,102700.16
2023-02-06T00:53:49.570Z,102705.19
2023-02-06T00:56:19.535Z,102707.47
2023-02-06T00:58:48.797Z,102710.97
2023-02-06T01:01:17.178Z,102712.75
2023-02-06T01:03:46.923Z,102701.81
2023-02-06T01:06:15.306Z,102700.31
2023-02-06T01:08:44.066Z,102701.56
2023-02-06T01:11:13.648Z,102707.03
2023-02-06T01:13:42.129Z,102702.94
2023-02-06T01:16:11.646Z,102704.91
2023-02-06T01:18:40.151Z,102708.41
2023-02-06T01:21:11.066Z,102712.81
2023-02-06T01:23:40.646Z,102702.63
2023-02-06T01:26:11.665Z,102706.13
2023-02-06T01:28:40.972Z,102703.53
2023-02-06T01:31:12.917Z,102703.69
2023-02-06T01:33:42.118Z,102703.53
2023-02-06T01:36:13.492Z,102701.84
2023-02-06T01:38:42.397Z,102701.84
2023-02-06T01:41:12.041Z,102711.28
2023-02-06T01:43:43.097Z,102711.00
2023-02-06T01:46:11.908Z,102720.44
2023-02-06T01:48:43.860Z,102722.06
2023-02-06T01:51:18.011Z,102707.31
2023-02-06T01:53:51.654Z,102715.09
2023-02-06T01:56:22.110Z,102717.66
2023-02-06T01:58:54.327Z,102712.50
2023-02-06T02:01:23.100Z,102715.09
2023-02-06T02:03:53.939Z,102718.56
2023-02-06T02:06:26.052Z,102717.66
2023-02-06T02:08:58.326Z,102717.84
2023-02-06T02:11:31.766Z,102715.25
2023-02-06T02:14:01.635Z,102706.72
2023-02-06T02:16:41.530Z,102705.22
2023-02-06T02:19:48.413Z,102706.13
2023-02-06T02:22:41.008Z,102700.94
2023-02-06T02:25:38.650Z,102693.03
2023-02-06T02:28:34.938Z,102703.22
2023-02-06T02:31:32.263Z,102690.00
2023-02-06T02:34:23.563Z,102687.09
2023-02-06T02:37:02.431Z,102684.19
2023-02-06T02:39:43.475Z,102677.81
2023-02-06T02:42:16.525Z,102686.19
2023-02-06T02:44:51.612Z,102677.19
2023-02-06T02:47:26.620Z,102689.97
2023-02-06T02:49:57.726Z,102687.81
2023-02-06T02:52:28.080Z,102694.38
2023-02-06T02:54:56.484Z,102695.88
2023-02-06T02:57:29.416Z,102704.22
2023-02-06T03:00:00.775Z,102710.91
2023-02-06T03:02:36.039Z,102711.63
2023-02-06T03:05:07.352Z,102706.16
2023-02-06T03:07:45.986Z,102702.50
2023-02-06T03:10:23.909Z,102706.63
2023-02-06T03:12:59.512Z,102701.13
2023-02-06T03:15:32.802Z,102704.47
2023-02-06T03:18:08.100Z,102706.00
2023-02-06T03:20:40.287Z,102709.34
2023-02-06T03:23:14.082Z,102696.09
2023-02-06T03:25:45.621Z,102693.19
2023-02-06T03:28:18.646Z,102700.81
2023-02-06T03:30:52.217Z,102690.31
2023-02-06T03:33:27.167Z,102687.41
2023-02-06T03:35:58.018Z,102688.91
2023-02-06T03:38:28.808Z,102690.59
2023-02-06T03:41:01.206Z,102683.44
2023-02-06T03:43:31.387Z,102682.53
2023-02-06T03:46:03.148Z,102687.34
2023-02-06T03:48:35.668Z,102689.81
2023-02-06T03:51:09.819Z,102691.31
2023-02-06T03:53:40.393Z,102689.47
2023-02-06T03:56:14.018Z,102685.97
2023-02-06T03:58:42.494Z,102688.25
2023-02-06T04:01:12.510Z,102676.09
2023-02-06T04:03:40.979Z,102661.53
2023-02-06T04:06:09.531Z,102656.19
2023-02-06T04:08:39.236Z,102663.03
2023-02-06T04:11:07.617Z,102666.38
2023-02-06T04:13:36.043Z,102669.88
2023-02-06T04:16:04.615Z,102673.19
2023-02-06T04:18:32.924Z,102669.69
2023-02-06T04:21:05.454Z,102682.59
2023-02-06T04:23:34.223Z,102674.72
2023-02-06T04:26:04.023Z,102678.22
2023-02-06T04:28:32.410Z,102679.72
2023-02-06T04:31:01.026Z,102677.91
2023-02-06T04:33:29.597Z,102682.13
2023-02-06T04:35:57.991Z,102695.03
2023-02-06T04:38:26.364Z,102686.38
2023-02-06T04:40:54.755Z,102698.19
2023-02-06T04:43:24.531Z,102697.28
2023-02-06T04:45:52.860Z,102701.56
2023-02-06T04:48:21.294Z,102704.88
2023-02-06T04:50:50.828Z,102703.06
2023-02-06T04:53:19.793Z,102704.56
2023-02-06T04:55:48.178Z,102710.50
2023-02-06T04:58:16.561Z,102707.91
2023-02-06T05:00:46.215Z,102704.25
2023-02-06T05:03:14.524Z,102712.91
2023-02-06T05:05:42.871Z,102713.66
2023-02-06T05:08:11.225Z,102712.75
2023-02-06T05:10:39.598Z,102716.06
2023-02-06T05:13:08.062Z,102715.00
2023-02-06T05:15:37.450Z,102718.34
2023-02-06T05:18:10.031Z,102715.75
2023-02-06T05:20:38.413Z,102700.88
2023-02-06T05:23:06.898Z,102702.38
2023-02-06T05:25:35.842Z,102702.38
2023-02-06T05:28:06.606Z,102712.69
2023-02-06T05:30:35.326Z,102705.72
2023-02-06T05:33:03.699Z,102703.88
2023-02-06T05:35:33.754Z,102700.19
2023-02-06T05:38:02.340Z,102692.47
2023-02-06T05:40:30.786Z,102696.72
2023-02-06T05:42:59.579Z,102694.91
2023-02-06T05:45:28.013Z,102693.81
2023-02-06T05:47:56.403Z,102692.00
2023-02-06T05:50:24.757Z,102685.16
2023-02-06T05:52:56.139Z,102688.66
2023-02-06T05:55:24.507Z,102684.25
2023-02-06T05:57:52.816Z,102677.25
2023-02-06T06:00:21.803Z,102679.84
2023-02-06T06:02:50.181Z,102680.59
2023-02-06T06:05:18.588Z,102688.34
2023-02-06T06:07:46.895Z,102688.34
2023-02-06T06:10:16.739Z,102687.44
2023-02-06T06:12:45.096Z,102690.00
2023-02-06T06:15:13.608Z,102686.50
2023-02-06T06:17:41.968Z,102677.72
2023-02-06T06:20:11.146Z,102669.78
2023-02-06T06:22:39.477Z,102673.28
2023-02-06T06:25:08.240Z,102668.88
2023-02-06T06:27:37.950Z,102668.88
2023-02-06T06:30:07.214Z,102664.47
2023-02-06T06:32:35.722Z,102671.47
2023-02-06T06:35:04.201Z,102678.44
2023-02-06T06:37:32.501Z,102675.13
2023-02-06T06:40:00.823Z,102677.72
2023-02-06T06:42:29.181Z,102669.19
2023-02-06T06:44:58.846Z,102675.25
2023-02-06T06:47:27.191Z,102671.97
2023-02-06T06:49:55.550Z,102655.53
2023-02-06T06:52:25.656Z,102662.53
2023-02-06T06:54:54.918Z,102661.03
2023-02-06T06:57:23.754Z,102668.19
2023-02-06T06:59:52.350Z,102673.50
2023-02-06T07:02:22.162Z,102668.63
2023-02-06T07:04:50.472Z,102669.72
2023-02-06T07:07:18.883Z,102676.88
2023-02-06T07:09:47.843Z,102671.88
2023-02-06T07:12:16.210Z,102678.84
2023-02-06T07:14:44.641Z,102679.03
2023-02-06T07:17:13.281Z,102678.84
2023-02-06T07:19:47.937Z,102683.69
2023-02-06T07:22:16.796Z,102682.97
2023-02-06T07:24:45.145Z,102686.59
2023-02-06T07:27:13.493Z,102678.13
2023-02-06T07:29:41.791Z,102674.94
2023-02-06T07:32:10.551Z,102681.31
2023-02-06T07:34:40.569Z,102680.91
2023-02-06T07:37:10.515Z,102684.56
2023-02-06T07:39:38.841Z,102685.78
2023-02-06T07:42:08.156Z,102688.84
2023-02-06T07:44:51.877Z,102681.41
2023-02-06T07:47:20.335Z,102673.97
2023-02-06T07:49:48.635Z,102676.13
2023-02-06T07:52:20.148Z,102672.78
2023-02-06T07:54:48.523Z,102680.09
2023-02-06T07:57:16.975Z,102677.81
2023-02-06T07:59:45.320Z,102666.88
2023-02-06T08:02:14.037Z,102668.88
2023-02-06T08:04:42.579Z,102672.53
2023-02-06T08:07:14.829Z,102678.59
2023-02-06T08:09:44.596Z,102677.69
2023-02-06T08:12:13.055Z,102677.69
2023-02-06T08:14:43.080Z,102683.94
2023-02-06T08:17:12.549Z,102683.16
2023-02-06T08:19:40.966Z,102681.53
2023-02-06T08:22:09.375Z,102684.09
2023-02-06T08:24:37.745Z,102677.09
2023-02-06T08:27:07.897Z,102682.44
2023-02-06T08:29:42.159Z,102680.59
2023-02-06T08:32:10.734Z,102686.81
2023-02-06T08:34:40.108Z,102683.50
2023-02-06T08:37:08.868Z,102688.81
2023-02-06T08:39:38.161Z,102671.81
2023-02-06T08:42:07.900Z,102670.47
2023-02-06T08:44:36.514Z,102661.16
2023-02-06T08:47:10.499Z,102664.22
2023-02-06T08:49:39.265Z,102670.47
2023-02-06T08:52:07.672Z,102672.44
2023-02-06T08:54:38.595Z,102677.19
2023-02-06T08:57:12.829Z,102679.16
2023-02-06T08:59:41.600Z,102679.47
2023-02-06T09:02:11.231Z,102683.25
2023-02-06T09:04:39.638Z,102683.59
2023-02-06T09:07:07.995Z,102674.28
2023-02-06T09:09:36.498Z,102685.72
2023-02-06T09:12:05.274Z,102679.03
2023-02-06T09:14:35.438Z,102684.50
2023-02-06T09:17:04.354Z,102691.81
2023-02-06T09:19:32.676Z,102692.72
2023-02-06T09:22:01.024Z,102681.66
2023-02-06T09:24:30.205Z,102670.53
2023-02-06T09:27:00.487Z,102681.03
2023-02-06T09:29:31.557Z,102679.66
2023-02-06T09:32:01.925Z,102680.84
2023-02-06T09:34:30.439Z,102679.50
2023-02-06T09:36:58.834Z,102675.53
2023-02-06T09:39:28.838Z,102693.97
2023-02-06T09:42:04.209Z,102694.56
2023-02-06T09:44:36.355Z,102691.53
2023-02-06T09:47:20.076Z,102693.97
2023-02-06T09:49:53.957Z,102692.75
2023-02-06T09:52:36.545Z,102695.94
2023-02-06T09:55:11.984Z,102696.41
2023-02-06T09:57:47.114Z,102689.09
2023-02-06T10:00:32.264Z,102690.47
2023-02-06T10:03:17.116Z,102688.44
2023-02-06T10:05:52.731Z,102696.06
2023-02-06T10:08:26.336Z,102697.56
2023-02-06T10:10:56.474Z,102696.47
2023-02-06T10:13:30.087Z,102697.09
2023-02-06T10:16:04.298Z,102696.75
2023-02-06T10:18:38.807Z,102695.41
2023-02-06T10:21:14.054Z,102700.09
2023-02-06T10:23:51.772Z,102693.53
2023-02-06T10:26:22.461Z,102687.88
2023-02-06T10:28:52.775Z,102679.78
2023-02-06T10:31:32.829Z,102680.97
2023-02-06T10:34:32.026Z,102675.47
2023-02-06T10:37:16.524Z,102682.78
2023-02-06T10:40:01.293Z,102672.69
2023-02-06T10:42:41.843Z,102678.03
2023-02-06T10:45:20.071Z,102674.03
2023-02-06T10:47:55.281Z,102668.13
2023-02-06T10:50:29.378Z,102659.84
2023-02-06T10:53:05.333Z,102652.22
2023-02-06T10:55:42.769Z,102644.56
2023-02-06T10:58:17.356Z,102647.47
2023-02-06T11:00:47.750Z,102645.16
2023-02-06T11:03:20.345Z,102637.53
2023-02-06T11:05:50.559Z,102643.91
2023-02-06T11:08:23.743Z,102647.84
2023-02-06T11:10:52.928Z,102650.72
2023-02-06T11:13:26.836Z,102647.78
2023-02-06T11:16:03.434Z,102643.78
2023-02-06T11:18:40.824Z,102651.84
2023-02-06T11:21:15.879Z,102638.41
2023-02-06T11:23:44.229Z,102644.94
2023-02-06T11:26:17.513Z,102634.81
2023-02-06T11:28:53.093Z,102633.28
2023-02-06T11:31:39.274Z,102626.56
2023-02-06T11:34:17.096Z,102617.25
2023-02-06T11:36:52.828Z,102622.72
2023-02-06T11:39:30.323Z,102613.66
2023-02-06T11:42:04.795Z,102622.78
2023-02-06T11:44:38.727Z,102612.81
2023-02-06T11:47:33.348Z,102605.56
2023-02-06T11:50:22.577Z,102599.41
2023-02-06T11:52:58.373Z,102602.81
2023-02-06T11:55:30.119Z,102600.13
2023-02-06T11:58:07.952Z,102596.00
2023-02-06T12:00:38.230Z,102593.66
2023-02-06T12:03:07.950Z,102599.13
2023-02-06T12:05:42.754Z,102591.75
2023-02-06T12:08:19.575Z,102586.56
2023-02-06T12:10:53.915Z,102583.81
2023-02-06T12:13:26.675Z,102587.31
2023-02-06T12:15:58.674Z,102582.25
2023-02-06T12:18:30.525Z,102580.72
2023-02-06T12:21:01.278Z,102576.69
2023-02-06T12:23:37.515Z,102578.94
2023-02-06T12:26:09.908Z,102593.22
2023-02-06T12:28:43.548Z,102592.44
2023-02-06T12:31:19.240Z,102585.44
2023-02-06T12:33:52.891Z,102587.25
2023-02-06T12:36:26.299Z,102590.91
2023-02-06T12:39:00.976Z,102594.53
2023-02-06T12:41:40.073Z,102591.94
2023-02-06T12:44:20.467Z,102589.06
2023-02-06T12:46:56.371Z,102585.69
2023-02-06T12:49:29.411Z,102581.16
2023-02-06T12:52:05.874Z,102578.41
2023-02-06T12:54:42.297Z,102576.59
2023-02-06T12:57:16.961Z,102579.94
2023-02-06T12:59:58.361Z,102573.09
2023-02-06T13:02:52.614Z,102567.75
2023-02-06T13:05:24.994Z,102562.16
2023-02-06T13:07:56.571Z,102565.66
2023-02-06T13:10:27.425Z,102560.47
2023-02-06T13:12:58.454Z,102557.22
2023-02-06T13:15:28.432Z,102558.28
2023-02-06T13:17:56.928Z,102549.56
2023-02-06T13:20:27.252Z,102550.63
2023-02-06T13:23:16.630Z,102549.84
2023-02-06T13:25:49.780Z,102552.69
2023-02-06T13:28:54.937Z,102542.59
2023-02-06T13:31:30.073Z,102543.50
2023-02-06T13:34:02.551Z,102540.25
2023-02-06T13:36:53.394Z,102537.00
2023-02-06T13:39:33.490Z,102520.63
2023-02-06T13:42:34.077Z,102531.16
2023-02-06T13:45:06.190Z,102528.72
2023-02-06T13:48:10.066Z,102536.63
2023-02-06T13:50:58.747Z,102526.50
2023-02-06T13:53:53.721Z,102531.97
2023-02-06T13:56:42.981Z,102526.88
2023-02-06T13:59:17.344Z,102530.38
2023-02-06T14:01:46.280Z,102520.28
2023-02-06T14:04:24.570Z,102522.09
2023-02-06T14:07:08.669Z,102518.97
2023-02-06T14:09:56.880Z,102513.13
2023-02-06T14:12:39.278Z,102516.88
2023-02-06T14:15:31.874Z,102519.03
2023-02-06T14:18:21.769Z,102522.66
2023-02-06T14:20:59.149Z,102528.50
2023-02-06T14:23:39.340Z,102524.97
2023-02-06T14:26:25.195Z,102529.13
2023-02-06T14:29:03.999Z,102528.09
2023-02-06T14:31:46.548Z,102533.13
2023-02-06T14:34:31.293Z,102521.69
2023-02-06T14:37:26.306Z,102531.19
2023-02-06T14:39:55.687Z,102522.34
2023-02-06T14:42:28.197Z,102524.94
2023-02-06T14:45:00.200Z,102530.94
2023-02-06T14:47:32.633Z,102524.03
2023-02-06T14:50:02.416Z,102526.63
2023-02-06T14:52:33.321Z,102512.75
2023-02-06T14:55:01.786Z,102525.72
2023-02-06T14:57:32.216Z,102515.34
2023-02-06T15:00:02.465Z,102511.03
2023-02-06T15:02:33.883Z,102524.19
2023-02-06T15:05:03.881Z,102520.78
2023-02-06T15:07:34.790Z,102522.47
2023-02-06T15:10:08.686Z,102533.03
2023-02-06T15:12:37.546Z,102533.78
2023-02-06T15:15:17.648Z,102534.03
2023-02-06T15:17:58.820Z,102533.94
2023-02-06T15:20:30.522Z,102531.19
2023-02-06T15:23:16.489Z,102532.22
2023-02-06T15:25:56.554Z,102526.00
2023-02-06T15:28:29.854Z,102527.03
2023-02-06T15:31:00.816Z,102525.34
2023-02-06T15:33:32.780Z,102522.88
2023-02-06T15:36:03.159Z,102507.28
2023-02-06T15:38:34.043Z,102504.69
2023-02-06T15:41:06.522Z,102510.00
2023-02-06T15:43:36.572Z,102509.09
2023-02-06T15:46:06.979Z,102512.59
2023-02-06T15:48:39.281Z,102508.34
2023-02-06T15:51:21.279Z,102507.28
2023-02-06T15:53:51.395Z,102509.88
2023-02-06T15:56:27.116Z,102504.69
2023-02-06T15:58:59.512Z,102498.44
2023-02-06T16:01:30.955Z,102502.59
2023-02-06T16:04:04.807Z,102489.34
2023-02-06T16:06:33.464Z,102487.50
2023-02-06T16:09:06.380Z,102494.28
2023-02-06T16:11:50.957Z,102487.25
2023-02-06T16:16:18.381Z,102495.06
2023-02-06T16:18:47.281Z,102502.84
2023-02-06T16:21:24.897Z,102490.66
2023-02-06T16:23:56.778Z,102494.00
2023-02-06T16:26:27.550Z,102496.50
2023-02-06T16:29:05.179Z,102492.06
2023-02-06T16:31:38.940Z,102479.88
2023-02-06T16:34:21.987Z,102483.13
2023-02-06T16:36:50.380Z,102476.88
2023-02-06T16:39:18.670Z,102475.81
2023-02-06T16:41:51.069Z,102476.38
2023-02-06T16:44:20.215Z,102471.66
2023-02-06T16:46:49.981Z,102474.78
2023-02-06T16:49:20.645Z,102476.06
2023-02-06T16:51:51.117Z,102481.00
2023-02-06T16:54:23.707Z,102471.91
2023-02-06T16:56:53.150Z,102476.59
2023-02-06T16:59:21.440Z,102486.44
2023-02-06T17:01:51.071Z,102482.53
2023-02-06T17:04:19.348Z,102486.56
2023-02-06T17:06:48.114Z,102485.34
2023-02-06T17:09:19.588Z,102486.63
2023-02-06T17:11:47.965Z,102486.22
2023-02-06T17:14:16.294Z,102483.53
2023-02-06T17:16:44.781Z,102491.31
2023-02-06T17:19:15.409Z,102481.56
2023-02-06T17:21:43.764Z,102477.28
2023-02-06T17:24:12.290Z,102481.44
2023-02-06T17:26:40.678Z,102478.81
2023-02-06T17:29:09.110Z,102471.84
2023-02-06T17:31:37.559Z,102476.09
2023-02-06T17:34:06.051Z,102476.72
2023-02-06T17:36:39.579Z,102484.41
2023-02-06T17:39:08.088Z,102483.19
2023-02-06T17:41:36.503Z,102479.59
2023-02-06T17:44:05.168Z,102478.00
2023-02-06T17:46:33.559Z,102484.25
2023-02-06T17:49:01.924Z,102480.91
2023-02-06T17:51:30.278Z,102492.28
2023-02-06T17:54:00.113Z,102491.53
2023-02-06T17:56:28.660Z,102492.59
2023-02-06T17:58:57.075Z,102492.59
2023-02-06T18:01:25.865Z,102495.31
2023-02-06T18:03:54.509Z,102491.00
2023-02-06T18:06:23.373Z,102487.66
2023-02-06T18:08:51.677Z,102483.38
2023-02-06T18:11:22.773Z,102480.94
2023-02-06T18:13:51.363Z,102480.94
2023-02-06T18:16:21.828Z,102482.63
2023-02-06T18:18:50.622Z,102477.28
2023-02-06T18:21:20.439Z,102482.47
2023-02-06T18:23:49.456Z,102484.81
2023-02-06T18:26:18.452Z,102481.91
2023-02-06T18:28:48.240Z,102486.84
2023-02-06T18:31:26.350Z,102477.75
2023-02-06T18:33:55.027Z,102478.28
2023-02-06T18:36:24.407Z,102476.91
2023-02-06T18:38:53.436Z,102473.94
2023-02-06T18:41:39.337Z,102482.84
2023-02-06T18:44:11.223Z,102488.25
2023-02-06T18:46:40.317Z,102493.66
2023-02-06T18:49:08.761Z,102501.03
2023-02-06T18:51:37.159Z,102510.22
2023-02-06T18:54:07.680Z,102510.69
2023-02-06T18:56:36.090Z,102509.66
2023-02-06T18:59:05.230Z,102517.94
2023-02-06T19:01:35.505Z,102506.09
2023-02-06T19:04:04.031Z,102516.03
2023-02-06T19:06:35.579Z,102518.06
2023-02-06T19:09:06.977Z,102518.56
2023-02-06T19:11:36.257Z,102510.50
2023-02-06T19:14:06.289Z,102510.97
2023-02-06T19:16:38.391Z,102502.03
2023-02-06T19:19:08.568Z,102502.66
2023-02-06T19:21:37.446Z,102511.19
2023-02-06T19:24:06.686Z,102514.56
2023-02-06T19:26:35.214Z,102505.72
2023-02-06T19:29:03.750Z,102494.47
2023-02-06T19:31:32.507Z,102500.25
2023-02-06T19:34:02.817Z,102501.06
2023-02-06T19:36:31.582Z,102503.34
2023-02-06T19:39:01.535Z,102510.97
2023-02-06T19:41:32.258Z,102499.41
2023-02-06T19:44:04.232Z,102503.53
2023-02-06T19:46:32.834Z,102511.03
2023-02-06T19:49:02.872Z,102505.56
2023-02-06T19:51:33.462Z,102508.63
2023-02-06T19:54:01.994Z,102505.75
2023-02-06T19:56:34.514Z,102509.59
2023-02-06T19:59:04.737Z,102505.94
2023-02-06T20:01:35.387Z,102510.84
2023-02-06T20:04:05.827Z,102509.50
2023-02-06T20:06:35.152Z,102512.72
2023-02-06T20:09:04.479Z,102508.94
2023-02-06T20:11:34.198Z,102510.47
2023-02-06T20:14:02.723Z,102502.38
2023-02-06T20:16:34.119Z,102512.44
2023-02-06T20:19:08.932Z,102505.19
2023-02-06T20:21:40.035Z,102511.88
2023-02-06T20:24:11.740Z,102515.09
2023-02-06T20:26:41.861Z,102517.22
2023-02-06T20:29:12.418Z,102516.78
2023-02-06T20:31:40.909Z,102517.41
2023-02-06T20:34:10.711Z,102522.59
2023-02-06T20:36:41.688Z,102520.00
2023-02-06T20:39:12.134Z,102513.00
2023-02-06T20:41:41.031Z,102520.00
2023-02-06T20:44:11.687Z,102522.59
2023-02-06T20:46:40.560Z,102506.16
2023-02-06T20:49:15.273Z,102513.91
2023-02-06T20:51:43.720Z,102511.94
2023-02-06T20:54:12.482Z,102516.22
2023-02-06T20:56:41.280Z,102517.59
2023-02-06T20:59:12.873Z,102502.84
2023-02-06T21:01:41.918Z,102502.56
2023-02-06T21:04:13.660Z,102501.31
2023-02-06T21:06:43.162Z,102494.19
2023-02-06T21:09:11.970Z,102499.06
2023-02-06T21:11:42.604Z,102499.69
2023-02-06T21:14:11.814Z,102499.25
2023-02-06T21:16:41.019Z,102502.28
2023-02-06T21:19:12.774Z,102491.34
2023-02-06T21:21:42.423Z,102489.22
2023-02-06T21:24:12.380Z,102486.19
2023-02-06T21:26:40.792Z,102489.09
2023-02-06T21:29:10.057Z,102491.09
2023-02-06T21:31:39.021Z,102484.41
2023-02-06T21:34:10.762Z,102499.34
2023-02-06T21:36:41.096Z,102499.94
2023-02-06T21:39:09.973Z,102501.13
2023-02-06T21:41:38.391Z,102496.44
2023-02-06T21:44:06.777Z,102496.88
2023-02-06T21:46:35.252Z,102496.28
2023-02-06T21:49:03.722Z,102494.16
2023-02-06T21:51:32.111Z,102500.53
2023-02-06T21:54:01.852Z,102493.84
2023-02-06T21:56:30.759Z,102495.06
2023-02-06T21:58:59.317Z,102485.81
2023-02-06T22:01:30.806Z,102490.50
2023-02-06T22:03:59.631Z,102489.25
2023-02-06T22:06:28.890Z,102482.72
2023-02-06T22:09:04.452Z,102483.19
2023-02-06T22:11:36.462Z,102488.63
2023-02-06T22:14:06.856Z,102490.91
2023-02-06T22:16:35.813Z,102489.84
2023-02-06T22:19:04.251Z,102483.47
2023-02-06T22:21:33.897Z,102482.25
2023-02-06T22:24:05.364Z,102484.38
2023-02-06T22:26:38.543Z,102487.38
2023-02-06T22:29:08.782Z,102486.78
2023-02-06T22:31:40.218Z,102483.13
2023-02-06T22:34:11.727Z,102480.06
2023-02-06T22:36:40.597Z,102475.50
2023-02-06T22:39:12.488Z,102469.09
2023-02-06T22:41:44.225Z,102467.91
2023-02-06T22:44:16.238Z,102459.06
2023-02-06T22:46:46.200Z,102456.19
2023-02-06T22:49:15.520Z,102463.75
2023-02-06T22:51:44.153Z,102469.69
2023-02-06T22:54:13.114Z,102466.94
2023-02-06T22:56:43.620Z,102471.19
2023-02-06T22:59:13.989Z,102473.78
2023-02-06T23:01:44.374Z,102465.88
2023-02-06T23:04:14.978Z,102466.63
2023-02-06T23:06:44.238Z,102475.44
2023-02-06T23:09:15.592Z,102483.91
2023-02-06T23:11:46.543Z,102497.56
2023-02-06T23:14:15.629Z,102500.94
2023-02-06T23:16:44.561Z,102503.34
2023-02-06T23:19:15.063Z,102496.97
2023-02-06T23:21:44.676Z,102498.47
2023-02-06T23:24:14.077Z,102511.19
2023-02-06T23:26:46.265Z,102504.81
2023-02-06T23:29:17.254Z,102498.56
2023-02-06T23:31:47.065Z,102488.09
2023-02-06T23:34:17.031Z,102486.88
2023-02-06T23:36:46.069Z,102493.22
2023-02-06T23:39:15.229Z,102501.53
2023-02-06T23:41:44.909Z,102488.34
2023-02-06T23:44:13.569Z,102483.78
2023-02-06T23:46:42.559Z,102489.53
2023-02-06T23:49:11.513Z,102491.94
2023-02-06T23:51:39.957Z,102497.81
2023-02-06T23:54:09.150Z,102501.94
2023-02-06T23:56:39.543Z,102501.75
2023-02-06T23:59:09.273Z,102498.28
